Airfield :
LOGIN :

Register | Disclaimer

   EN    FR    IT 

 










Legend :    VFR   Marginal VFR   IFR   Intensive IFR   Very Intensive IFR
Visi :
Ceiling :
>= 8 km
>= 3000ft
5 to 8 km
1000 to 3000 ft
1500m to 5 km
500 to 1000 ft
800 to 1500m
200 to 500 ft
< 800m
< 200 ft
Symbols :   Thunderstorms  Fog  Heavy snow  Heavy precipitations  Wind > 20 kt
SIGMETs :     Misc.  Thunderstorms  Icing  Turbulence  Mountain Waves  Volcanic Ashes







- Airport Elevation : 856 ft
- IATA code : VGO


LEVX - Vigo Peinador

CURRENT METAR :
  • 211130Z VRB06KT 9999 SCT024 22/15 Q1019 NOSIG

EXPIRED METARs :
  • 211100Z 01006KT 330V120 9999 SCT025 22/15 Q1019 NOSIG
  • 211030Z 03006KT 320V100 9999 SCT022 23/16 Q1019 NOSIG
  • 211000Z 36009KT 300V070 9999 SCT023 21/15 Q1019 NOSIG
  • 210930Z 04004KT 330V100 9999 FEW023 21/13 Q1019 NOSIG
  • 210900Z 01004KT 320V070 9999 FEW035 20/12 Q1019 NOSIG

TAF TAF LEVX
Valid from the 21 at 12:00 until the 22 at 12:00 UTC


211100Z 2112/2212 29009KT 9999 SCT025 TX24/2113Z TN14/2206Z
PROB40
TEMPO 2112/2120 SCT030TCU
No reported NOTAMs for that airfield.



MET'MAP, your aeronautical weather chart ! - Copyright ORBIFLY December 2007 - Disclaimer

ORBIFLY MET'MAP TEAM :

Programming & Development : Alexandra Zaïnal
Concept & Development : Baudouin d'Aumeries
Co-Development & Prog : Marc-Olivier Méhu
Technical & hardware support : Manuel Goepfert

Contact : metmap@orbifly.com




SOURCES & CREDITS :

   NOAA